Wetterdaten: Samstag, 14.05.2011
Datum Zeit Temp. A. Feuchte A. Luftdruck Regen Wind Richtung Richtung Sonnenschein UV Solar Windben
14.05.2011 00:00 11,9 C 69 % 1016,6 hPa 0,0 mm 0,0 km/h (0 Bft) W 270 0 min 0 UV-I 0 W/m 1,6 km/h (1 Bft)
14.05.2011 00:10 11,7 C 71 % 1016,6 hPa 0,0 mm 0,0 km/h (0 Bft) N 0 0 min 0 UV-I 0 W/m 0,0 km/h (0 Bft)
14.05.2011 00:20 11,4 C 71 % 1016,5 hPa 0,0 mm 0,0 km/h (0 Bft) N 0 0 min 0 UV-I 0 W/m 0,0 km/h (0 Bft)
14.05.2011 00:30 11,4 C 71 % 1016,5 hPa 0,0 mm 0,0 km/h (0 Bft) N 0 0 min 0 UV-I 0 W/m 0,0 km/h (0 Bft)
14.05.2011 00:40 11,4 C 72 % 1016,5 hPa 0,0 mm 0,0 km/h (0 Bft) N 0 0 min 0 UV-I 0 W/m 0,0 km/h (0 Bft)
14.05.2011 00:50 11,2 C 72 % 1016,4 hPa 0,0 mm 0,0 km/h (0 Bft) W 270 0 min 0 UV-I 0 W/m 1,6 km/h (1 Bft)
14.05.2011 01:00 10,9 C 73 % 1016,2 hPa 0,0 mm 0,0 km/h (0 Bft) W 270 0 min 0 UV-I 0 W/m 3,2 km/h (1 Bft)
14.05.2011 01:10 10,8 C 73 % 1016,0 hPa 0,0 mm 0,0 km/h (0 Bft) W 270 0 min 0 UV-I 0 W/m 3,2 km/h (1 Bft)
14.05.2011 01:20 10,9 C 72 % 1015,8 hPa 0,0 mm 0,0 km/h (0 Bft) W 270 0 min 0 UV-I 0 W/m 1,6 km/h (1 Bft)
14.05.2011 01:30 10,9 C 72 % 1015,8 hPa 0,0 mm 0,0 km/h (0 Bft) W 270 0 min 0 UV-I 0 W/m 1,6 km/h (1 Bft)
14.05.2011 01:40 10,7 C 73 % 1015,7 hPa 0,0 mm 0,0 km/h (0 Bft) W 270 0 min 0 UV-I 0 W/m 1,6 km/h (1 Bft)
14.05.2011 01:50 10,6 C 73 % 1015,7 hPa 0,0 mm 0,0 km/h (0 Bft) W 270 0 min 0 UV-I 0 W/m 1,6 km/h (1 Bft)
14.05.2011 02:00 10,4 C 74 % 1015,7 hPa 0,0 mm 0,0 km/h (0 Bft) N 0 0 min 0 UV-I 0 W/m 0,0 km/h (0 Bft)
14.05.2011 02:10 10,3 C 74 % 1015,7 hPa 0,0 mm 0,0 km/h (0 Bft) N 0 0 min 0 UV-I 0 W/m 0,0 km/h (0 Bft)
14.05.2011 02:20 10,1 C 75 % 1015,6 hPa 0,0 mm 0,0 km/h (0 Bft) N 0 0 min 0 UV-I 0 W/m 0,0 km/h (0 Bft)
14.05.2011 02:30 9,8 C 76 % 1015,6 hPa 0,0 mm 0,0 km/h (0 Bft) N 0 0 min 0 UV-I 0 W/m 0,0 km/h (0 Bft)
14.05.2011 02:40 9,8 C 77 % 1015,5 hPa 0,0 mm 0,0 km/h (0 Bft) W 270 0 min 0 UV-I 0 W/m 1,6 km/h (1 Bft)
14.05.2011 02:50 9,8 C 76 % 1015,3 hPa 0,0 mm 0,0 km/h (0 Bft) N 0 0 min 0 UV-I 0 W/m 0,0 km/h (0 Bft)
14.05.2011 03:00 9,6 C 77 % 1015,2 hPa 0,0 mm 0,0 km/h (0 Bft) N 0 0 min 0 UV-I 0 W/m 0,0 km/h (0 Bft)
14.05.2011 03:10 9,4 C 78 % 1015,1 hPa 0,0 mm 0,0 km/h (0 Bft) N 0 0 min 0 UV-I 0 W/m 0,0 km/h (0 Bft)
14.05.2011 03:20 9,2 C 78 % 1015,1 hPa 0,0 mm 0,0 km/h (0 Bft) N 0 0 min 0 UV-I 0 W/m 0,0 km/h (0 Bft)
14.05.2011 03:30 9,1 C 79 % 1015,1 hPa 0,0 mm 0,0 km/h (0 Bft) N 0 0 min 0 UV-I 0 W/m 0,0 km/h (0 Bft)
14.05.2011 03:40 8,9 C 80 % 1015,0 hPa 0,0 mm 0,0 km/h (0 Bft) N 0 0 min 0 UV-I 0 W/m 0,0 km/h (0 Bft)
14.05.2011 03:50 8,7 C 81 % 1014,9 hPa 0,0 mm 0,0 km/h (0 Bft) N 0 0 min 0 UV-I 0 W/m 0,0 km/h (0 Bft)
14.05.2011 04:00 8,6 C 82 % 1014,8 hPa 0,0 mm 0,0 km/h (0 Bft) N 0 0 min 0 UV-I 0 W/m 0,0 km/h (0 Bft)
14.05.2011 04:10 8,6 C 83 % 1014,8 hPa 0,0 mm 0,0 km/h (0 Bft) N 0 0 min 0 UV-I 0 W/m 0,0 km/h (0 Bft)
14.05.2011 04:20 8,6 C 83 % 1014,8 hPa 0,0 mm 0,0 km/h (0 Bft) N 0 0 min 0 UV-I 0 W/m 0,0 km/h (0 Bft)
14.05.2011 04:30 8,7 C 84 % 1014,7 hPa 0,0 mm 0,0 km/h (0 Bft) N 0 0 min 0 UV-I 0 W/m 0,0 km/h (0 Bft)
14.05.2011 04:40 8,9 C 83 % 1014,7 hPa 0,0 mm 0,0 km/h (0 Bft) N 0 0 min 0 UV-I 0 W/m 0,0 km/h (0 Bft)
14.05.2011 04:50 8,9 C 83 % 1014,5 hPa 0,0 mm 0,0 km/h (0 Bft) N 0 0 min 0 UV-I 0 W/m 0,0 km/h (0 Bft)
14.05.2011 05:00 8,9 C 84 % 1014,4 hPa 0,0 mm 0,0 km/h (0 Bft) N 0 0 min 0 UV-I 0 W/m 0,0 km/h (0 Bft)
14.05.2011 05:10 8,9 C 84 % 1014,2 hPa 0,0 mm 0,0 km/h (0 Bft) N 0 0 min 0 UV-I 0 W/m 0,0 km/h (0 Bft)
14.05.2011 05:20 8,8 C 84 % 1014,1 hPa 0,0 mm 0,0 km/h (0 Bft) N 0 0 min 0 UV-I 0 W/m 0,0 km/h (0 Bft)
14.05.2011 05:30 8,7 C 85 % 1014,1 hPa 0,0 mm 0,0 km/h (0 Bft) N 0 0 min 0 UV-I 0 W/m 0,0 km/h (0 Bft)
14.05.2011 05:40 8,6 C 85 % 1014,0 hPa 0,0 mm 0,0 km/h (0 Bft) N 0 0 min 0 UV-I 0 W/m 0,0 km/h (0 Bft)
14.05.2011 05:50 8,4 C 86 % 1013,9 hPa 0,0 mm 0,0 km/h (0 Bft) N 0 0 min 0 UV-I 0 W/m 0,0 km/h (0 Bft)
14.05.2011 06:00 8,4 C 86 % 1013,9 hPa 0,0 mm 0,0 km/h (0 Bft) N 0 0 min 0 UV-I 7 W/m 0,0 km/h (0 Bft)
14.05.2011 06:10 8,4 C 86 % 1013,7 hPa 0,0 mm 0,0 km/h (0 Bft) N 0 0 min 0 UV-I 11 W/m 0,0 km/h (0 Bft)
14.05.2011 06:20 8,5 C 86 % 1013,7 hPa 0,0 mm 0,0 km/h (0 Bft) N 0 0 min 0 UV-I 12 W/m 0,0 km/h (0 Bft)
14.05.2011 06:30 8,5 C 85 % 1013,7 hPa 0,0 mm 0,0 km/h (0 Bft) N 0 0 min 0 UV-I 21 W/m 0,0 km/h (0 Bft)
14.05.2011 06:40 8,6 C 84 % 1013,6 hPa 0,0 mm 0,0 km/h (0 Bft) N 0 0 min 0 UV-I 49 W/m 0,0 km/h (0 Bft)
14.05.2011 06:50 8,8 C 84 % 1013,6 hPa 0,0 mm 0,0 km/h (0 Bft) N 0 0 min 0 UV-I 76 W/m 0,0 km/h (0 Bft)
14.05.2011 07:00 9,3 C 84 % 1013,5 hPa 0,0 mm 0,0 km/h (0 Bft) N 0 0 min 0 UV-I 76 W/m 0,0 km/h (0 Bft)
14.05.2011 07:10 9,8 C 83 % 1013,4 hPa 0,0 mm 0,0 km/h (0 Bft) N 0 0 min 0 UV-I 100 W/m 0,0 km/h (0 Bft)
14.05.2011 07:20 10,4 C 82 % 1013,3 hPa 0,0 mm 0,0 km/h (0 Bft) N 0 10 min 1 UV-I 153 W/m 0,0 km/h (0 Bft)
14.05.2011 07:30 11,1 C 79 % 1013,2 hPa 0,0 mm 0,0 km/h (0 Bft) N 0 0 min 1 UV-I 146 W/m 0,0 km/h (0 Bft)
14.05.2011 07:40 11,6 C 76 % 1013,2 hPa 0,0 mm 0,0 km/h (0 Bft) N 0 0 min 1 UV-I 144 W/m 0,0 km/h (0 Bft)
14.05.2011 07:50 12,0 C 75 % 1013,1 hPa 0,0 mm 0,0 km/h (0 Bft) N 0 0 min 1 UV-I 156 W/m 0,0 km/h (0 Bft)
14.05.2011 08:00 12,8 C 70 % 1013,1 hPa 0,0 mm 0,3 km/h (0 Bft) W 265 10 min 1 UV-I 209 W/m 4,8 km/h (1 Bft)
14.05.2011 08:10 13,1 C 69 % 1013,2 hPa 0,0 mm 1,6 km/h (1 Bft) W 270 10 min 1 UV-I 243 W/m 8,0 km/h (2 Bft)
14.05.2011 08:20 13,1 C 69 % 1013,2 hPa 0,0 mm 0,0 km/h (0 Bft) W 270 10 min 1 UV-I 304 W/m 4,8 km/h (1 Bft)
14.05.2011 08:30 13,2 C 67 % 1013,2 hPa 0,0 mm 0,0 km/h (0 Bft) W 270 0 min 1 UV-I 229 W/m 1,6 km/h (1 Bft)
14.05.2011 08:40 13,5 C 66 % 1013,1 hPa 0,0 mm 0,0 km/h (0 Bft) W 270 10 min 1 UV-I 343 W/m 3,2 km/h (1 Bft)
14.05.2011 08:50 13,6 C 65 % 1013,0 hPa 0,0 mm 0,0 km/h (0 Bft) W 270 10 min 1 UV-I 323 W/m 1,6 km/h (1 Bft)
14.05.2011 09:00 14,2 C 63 % 1012,9 hPa 0,0 mm 0,0 km/h (0 Bft) W 270 10 min 1 UV-I 278 W/m 3,2 km/h (1 Bft)
14.05.2011 09:10 14,4 C 61 % 1013,0 hPa 0,0 mm 0,0 km/h (0 Bft) W 270 10 min 2 UV-I 325 W/m 1,6 km/h (1 Bft)
14.05.2011 09:20 14,3 C 61 % 1012,8 hPa 0,0 mm 0,0 km/h (0 Bft) W 270 10 min 2 UV-I 385 W/m 3,2 km/h (1 Bft)
14.05.2011 09:30 14,4 C 61 % 1012,7 hPa 0,0 mm 0,0 km/h (0 Bft) W 270 0 min 2 UV-I 283 W/m 1,6 km/h (1 Bft)
14.05.2011 09:40 14,8 C 57 % 1012,6 hPa 0,0 mm 0,0 km/h (0 Bft) W 270 10 min 3 UV-I 577 W/m 4,8 km/h (1 Bft)
14.05.2011 09:50 15,3 C 56 % 1013,0 hPa 0,0 mm 1,6 km/h (1 Bft) W 270 10 min 3 UV-I 608 W/m 6,4 km/h (2 Bft)
14.05.2011 10:00 16,0 C 54 % 1012,8 hPa 0,0 mm 1,6 km/h (1 Bft) W 270 10 min 3 UV-I 707 W/m 9,7 km/h (2 Bft)
14.05.2011 10:10 15,9 C 56 % 1012,8 hPa 0,0 mm 3,2 km/h (1 Bft) W 270 0 min 3 UV-I 264 W/m 9,7 km/h (2 Bft)
14.05.2011 10:20 16,4 C 53 % 1012,7 hPa 0,0 mm 3,2 km/h (1 Bft) W 270 10 min 4 UV-I 814 W/m 11,3 km/h (2 Bft)
14.05.2011 10:30 16,9 C 53 % 1012,7 hPa 0,0 mm 4,8 km/h (1 Bft) W 270 10 min 3 UV-I 654 W/m 11,3 km/h (2 Bft)
14.05.2011 10:40 17,1 C 52 % 1012,7 hPa 0,0 mm 4,8 km/h (1 Bft) W-SW 247 10 min 3 UV-I 410 W/m 16,1 km/h (3 Bft)
14.05.2011 10:50 17,3 C 52 % 1012,7 hPa 0,0 mm 4,8 km/h (1 Bft) W-SW 247 10 min 4 UV-I 826 W/m 14,5 km/h (3 Bft)
14.05.2011 11:00 17,7 C 51 % 1012,7 hPa 0,0 mm 4,8 km/h (1 Bft) W 270 10 min 4 UV-I 821 W/m 20,9 km/h (4 Bft)
14.05.2011 11:10 17,6 C 51 % 1012,7 hPa 0,0 mm 6,4 km/h (2 Bft) W 270 0 min 4 UV-I 364 W/m 17,7 km/h (3 Bft)
14.05.2011 11:20 17,4 C 53 % 1012,7 hPa 0,0 mm 6,4 km/h (2 Bft) W 270 10 min 5 UV-I 809 W/m 17,7 km/h (3 Bft)
14.05.2011 11:30 18,2 C 51 % 1012,7 hPa 0,0 mm 6,4 km/h (2 Bft) W 270 10 min 5 UV-I 838 W/m 17,7 km/h (3 Bft)
14.05.2011 11:40 18,4 C 51 % 1012,8 hPa 0,0 mm 6,4 km/h (2 Bft) W 270 10 min 5 UV-I 835 W/m 16,1 km/h (3 Bft)
14.05.2011 11:50 18,6 C 51 % 1012,7 hPa 0,0 mm 4,8 km/h (1 Bft) W 270 10 min 5 UV-I 796 W/m 20,9 km/h (4 Bft)
14.05.2011 12:00 18,7 C 51 % 1012,7 hPa 0,0 mm 6,4 km/h (2 Bft) W 270 0 min 4 UV-I 385 W/m 17,7 km/h (3 Bft)
14.05.2011 12:10 18,2 C 52 % 1012,8 hPa 0,0 mm 6,4 km/h (2 Bft) W 270 0 min 3 UV-I 313 W/m 19,3 km/h (3 Bft)
14.05.2011 12:20 17,9 C 52 % 1012,8 hPa 0,0 mm 8,0 km/h (2 Bft) W-SW 247 10 min 4 UV-I 652 W/m 20,9 km/h (4 Bft)
14.05.2011 12:30 17,7 C 52 % 1012,9 hPa 0,0 mm 8,0 km/h (2 Bft) W-NW 292 0 min 4 UV-I 350 W/m 22,5 km/h (4 Bft)
14.05.2011 12:40 18,0 C 50 % 1013,0 hPa 0,0 mm 6,4 km/h (2 Bft) W-NW 292 10 min 5 UV-I 865 W/m 22,5 km/h (4 Bft)
14.05.2011 12:50 18,6 C 47 % 1013,0 hPa 0,0 mm 9,7 km/h (2 Bft) W 270 10 min 6 UV-I 814 W/m 27,4 km/h (4 Bft)
14.05.2011 13:00 18,3 C 49 % 1013,1 hPa 0,0 mm 8,0 km/h (2 Bft) W 270 0 min 4 UV-I 443 W/m 25,7 km/h (4 Bft)
14.05.2011 13:10 18,3 C 46 % 1013,1 hPa 0,0 mm 8,0 km/h (2 Bft) W 270 10 min 5 UV-I 800 W/m 20,9 km/h (4 Bft)
14.05.2011 13:20 18,1 C 48 % 1013,1 hPa 0,0 mm 4,8 km/h (1 Bft) W 270 0 min 3 UV-I 427 W/m 19,3 km/h (3 Bft)
14.05.2011 13:30 17,8 C 48 % 1013,0 hPa 0,0 mm 4,8 km/h (1 Bft) W 270 0 min 3 UV-I 325 W/m 16,1 km/h (3 Bft)
14.05.2011 13:40 17,7 C 53 % 1013,0 hPa 0,0 mm 8,0 km/h (2 Bft) W 270 0 min 3 UV-I 381 W/m 19,3 km/h (3 Bft)
14.05.2011 13:50 17,7 C 54 % 1012,9 hPa 0,0 mm 8,0 km/h (2 Bft) W 270 10 min 4 UV-I 596 W/m 22,5 km/h (4 Bft)
14.05.2011 14:00 17,8 C 53 % 1012,8 hPa 0,0 mm 6,4 km/h (2 Bft) W 270 10 min 3 UV-I 461 W/m 24,1 km/h (4 Bft)
14.05.2011 14:10 17,6 C 55 % 1012,8 hPa 0,0 mm 9,7 km/h (2 Bft) W-NW 292 10 min 4 UV-I 520 W/m 22,5 km/h (4 Bft)
14.05.2011 14:20 17,1 C 53 % 1012,9 hPa 0,0 mm 8,0 km/h (2 Bft) W-NW 292 10 min 4 UV-I 591 W/m 22,5 km/h (4 Bft)
14.05.2011 14:30 17,4 C 53 % 1012,9 hPa 0,0 mm 8,0 km/h (2 Bft) W 270 10 min 4 UV-I 673 W/m 20,9 km/h (4 Bft)
14.05.2011 14:40 17,7 C 53 % 1012,9 hPa 0,0 mm 8,0 km/h (2 Bft) W-NW 292 10 min 4 UV-I 591 W/m 22,5 km/h (4 Bft)
14.05.2011 14:50 17,8 C 54 % 1012,9 hPa 0,0 mm 6,4 km/h (2 Bft) W-NW 292 10 min 3 UV-I 446 W/m 19,3 km/h (3 Bft)
14.05.2011 15:00 17,6 C 55 % 1013,0 hPa 0,0 mm 6,4 km/h (2 Bft) W 270 0 min 3 UV-I 390 W/m 17,7 km/h (3 Bft)
14.05.2011 15:10 17,4 C 54 % 1013,1 hPa 0,0 mm 8,0 km/h (2 Bft) W 270 10 min 3 UV-I 446 W/m 20,9 km/h (4 Bft)
14.05.2011 15:20 17,2 C 55 % 1013,1 hPa 0,0 mm 8,0 km/h (2 Bft) W 270 0 min 2 UV-I 316 W/m 25,7 km/h (4 Bft)
14.05.2011 15:30 16,8 C 54 % 1013,2 hPa 0,0 mm 9,7 km/h (2 Bft) W 270 0 min 2 UV-I 336 W/m 22,5 km/h (4 Bft)
14.05.2011 15:40 16,7 C 52 % 1013,3 hPa 0,0 mm 8,0 km/h (2 Bft) NW 315 0 min 2 UV-I 364 W/m 22,5 km/h (4 Bft)
14.05.2011 15:50 16,9 C 53 % 1013,3 hPa 0,0 mm 6,4 km/h (2 Bft) W 270 0 min 2 UV-I 318 W/m 19,3 km/h (3 Bft)
14.05.2011 16:00 16,8 C 52 % 1013,4 hPa 0,0 mm 9,7 km/h (2 Bft) W 270 10 min 2 UV-I 388 W/m 27,4 km/h (4 Bft)
14.05.2011 16:10 16,4 C 54 % 1013,5 hPa 0,0 mm 8,0 km/h (2 Bft) W-NW 292 0 min 2 UV-I 366 W/m 22,5 km/h (4 Bft)
14.05.2011 16:20 16,2 C 55 % 1013,7 hPa 0,0 mm 8,0 km/h (2 Bft) NW 315 10 min 3 UV-I 520 W/m 24,1 km/h (4 Bft)
14.05.2011 16:30 16,1 C 56 % 1013,9 hPa 0,0 mm 8,0 km/h (2 Bft) W 270 10 min 2 UV-I 394 W/m 24,1 km/h (4 Bft)
14.05.2011 16:40 15,6 C 57 % 1013,8 hPa 0,0 mm 8,0 km/h (2 Bft) W 270 0 min 2 UV-I 223 W/m 17,7 km/h (3 Bft)
14.05.2011 16:50 15,2 C 59 % 1013,8 hPa 0,0 mm 8,0 km/h (2 Bft) W-NW 292 0 min 1 UV-I 197 W/m 20,9 km/h (4 Bft)
14.05.2011 17:00 15,4 C 58 % 1013,8 hPa 0,0 mm 6,4 km/h (2 Bft) W 270 10 min 3 UV-I 689 W/m 19,3 km/h (3 Bft)
14.05.2011 17:10 15,8 C 59 % 1014,0 hPa 0,0 mm 8,0 km/h (2 Bft) W 270 10 min 2 UV-I 568 W/m 22,5 km/h (4 Bft)
14.05.2011 17:20 15,6 C 59 % 1013,9 hPa 0,0 mm 6,4 km/h (2 Bft) W 270 0 min 2 UV-I 276 W/m 20,9 km/h (4 Bft)
14.05.2011 17:30 15,9 C 59 % 1013,7 hPa 0,0 mm 6,4 km/h (2 Bft) W 270 10 min 2 UV-I 647 W/m 14,5 km/h (3 Bft)
14.05.2011 17:40 15,7 C 59 % 1013,7 hPa 0,0 mm 4,8 km/h (1 Bft) W 270 0 min 2 UV-I 258 W/m 14,5 km/h (3 Bft)
14.05.2011 17:50 15,8 C 59 % 1013,7 hPa 0,0 mm 4,8 km/h (1 Bft) W 270 10 min 2 UV-I 287 W/m 19,3 km/h (3 Bft)
14.05.2011 18:00 16,3 C 58 % 1013,5 hPa 0,0 mm 4,8 km/h (1 Bft) W-SW 247 10 min 2 UV-I 529 W/m 11,3 km/h (2 Bft)
14.05.2011 18:10 16,6 C 59 % 1013,5 hPa 0,0 mm 4,8 km/h (1 Bft) W 270 10 min 1 UV-I 468 W/m 11,3 km/h (2 Bft)
14.05.2011 18:20 16,1 C 61 % 1013,5 hPa 0,0 mm 3,2 km/h (1 Bft) W 270 10 min 1 UV-I 439 W/m 16,1 km/h (3 Bft)
14.05.2011 18:30 15,8 C 60 % 1013,5 hPa 0,0 mm 3,2 km/h (1 Bft) W-SW 247 0 min 1 UV-I 155 W/m 12,9 km/h (3 Bft)
14.05.2011 18:40 16,0 C 58 % 1013,6 hPa 0,0 mm 3,2 km/h (1 Bft) W 270 10 min 1 UV-I 415 W/m 9,7 km/h (2 Bft)
14.05.2011 18:50 16,3 C 46 % 1013,6 hPa 0,0 mm 6,4 km/h (2 Bft) W-NW 292 0 min 1 UV-I 127 W/m 20,9 km/h (4 Bft)
14.05.2011 19:00 15,9 C 45 % 1013,6 hPa 0,0 mm 4,8 km/h (1 Bft) W 270 0 min 1 UV-I 141 W/m 17,7 km/h (3 Bft)
14.05.2011 19:10 16,2 C 43 % 1013,6 hPa 0,0 mm 6,4 km/h (2 Bft) W-NW 292 10 min 1 UV-I 318 W/m 20,9 km/h (4 Bft)
14.05.2011 19:20 16,6 C 41 % 1013,9 hPa 0,0 mm 9,7 km/h (2 Bft) W 270 10 min 1 UV-I 276 W/m 24,1 km/h (4 Bft)
14.05.2011 19:30 16,2 C 43 % 1014,0 hPa 0,0 mm 6,4 km/h (2 Bft) W-NW 292 10 min 1 UV-I 209 W/m 20,9 km/h (4 Bft)
14.05.2011 19:40 15,9 C 44 % 1014,0 hPa 0,0 mm 8,0 km/h (2 Bft) W-NW 292 10 min 1 UV-I 214 W/m 20,9 km/h (4 Bft)
14.05.2011 19:50 15,9 C 43 % 1014,0 hPa 0,0 mm 8,0 km/h (2 Bft) W-NW 292 10 min 0 UV-I 207 W/m 25,7 km/h (4 Bft)
14.05.2011 20:00 15,7 C 43 % 1014,1 hPa 0,0 mm 6,4 km/h (2 Bft) W-NW 292 10 min 0 UV-I 146 W/m 20,9 km/h (4 Bft)
14.05.2011 20:10 15,2 C 45 % 1014,4 hPa 0,0 mm 6,4 km/h (2 Bft) W-NW 292 0 min 0 UV-I 46 W/m 20,9 km/h (4 Bft)
14.05.2011 20:20 15,0 C 45 % 1014,5 hPa 0,0 mm 9,7 km/h (2 Bft) W-NW 292 0 min 0 UV-I 39 W/m 22,5 km/h (4 Bft)
14.05.2011 20:30 14,7 C 46 % 1014,5 hPa 0,0 mm 6,4 km/h (2 Bft) W-NW 292 0 min 0 UV-I 30 W/m 19,3 km/h (3 Bft)
14.05.2011 20:40 14,4 C 46 % 1014,7 hPa 0,0 mm 6,4 km/h (2 Bft) NW 315 0 min 0 UV-I 23 W/m 17,7 km/h (3 Bft)
14.05.2011 20:50 14,2 C 48 % 1014,8 hPa 0,0 mm 4,8 km/h (1 Bft) W-NW 292 0 min 0 UV-I 16 W/m 11,3 km/h (2 Bft)
14.05.2011 21:00 13,9 C 48 % 1014,8 hPa 0,0 mm 6,4 km/h (2 Bft) NW 315 0 min 0 UV-I 12 W/m 17,7 km/h (3 Bft)
14.05.2011 21:10 13,7 C 48 % 1014,9 hPa 0,0 mm 6,4 km/h (2 Bft) W-NW 292 0 min 0 UV-I 0 W/m 19,3 km/h (3 Bft)
14.05.2011 21:20 13,5 C 48 % 1015,1 hPa 0,0 mm 6,4 km/h (2 Bft) W-NW 292 0 min 0 UV-I 0 W/m 17,7 km/h (3 Bft)
14.05.2011 21:30 13,2 C 49 % 1015,3 hPa 0,0 mm 3,2 km/h (1 Bft) W-NW 292 0 min 0 UV-I 0 W/m 16,1 km/h (3 Bft)
14.05.2011 21:40 12,9 C 50 % 1015,4 hPa 0,0 mm 1,6 km/h (1 Bft) NW 315 0 min 0 UV-I 0 W/m 9,7 km/h (2 Bft)
14.05.2011 21:50 12,7 C 51 % 1015,5 hPa 0,0 mm 1,6 km/h (1 Bft) W-NW 292 0 min 0 UV-I 0 W/m 9,7 km/h (2 Bft)
14.05.2011 22:00 12,4 C 51 % 1015,7 hPa 0,0 mm 1,6 km/h (1 Bft) W-NW 292 0 min 0 UV-I 0 W/m 11,3 km/h (2 Bft)
14.05.2011 22:10 12,2 C 52 % 1015,7 hPa 0,0 mm 1,6 km/h (1 Bft) W-NW 292 0 min 0 UV-I 0 W/m 6,4 km/h (2 Bft)
14.05.2011 22:20 12,1 C 53 % 1015,8 hPa 0,0 mm 1,6 km/h (1 Bft) W-NW 292 0 min 0 UV-I 0 W/m 11,3 km/h (2 Bft)
14.05.2011 22:30 11,8 C 54 % 1015,9 hPa 0,0 mm 1,6 km/h (1 Bft) W-NW 292 0 min 0 UV-I 0 W/m 8,0 km/h (2 Bft)
14.05.2011 22:40 11,7 C 55 % 1015,9 hPa 0,0 mm 1,6 km/h (1 Bft) W-NW 292 0 min 0 UV-I 0 W/m 9,7 km/h (2 Bft)
14.05.2011 22:50 11,4 C 57 % 1016,0 hPa 0,0 mm 1,6 km/h (1 Bft) W 270 0 min 0 UV-I 0 W/m 6,4 km/h (2 Bft)
14.05.2011 23:00 11,2 C 58 % 1016,2 hPa 0,0 mm 0,0 km/h (0 Bft) W-NW 292 0 min 0 UV-I 0 W/m 4,8 km/h (1 Bft)
14.05.2011 23:10 11,0 C 59 % 1016,2 hPa 0,0 mm 0,0 km/h (0 Bft) W-NW 292 0 min 0 UV-I 0 W/m 8,0 km/h (2 Bft)
14.05.2011 23:20 10,7 C 61 % 1016,2 hPa 0,0 mm 0,0 km/h (0 Bft) W-NW 292 0 min 0 UV-I 0 W/m 3,2 km/h (1 Bft)
14.05.2011 23:30 10,5 C 61 % 1016,3 hPa 0,0 mm 0,0 km/h (0 Bft) W-NW 292 0 min 0 UV-I 0 W/m 1,6 km/h (1 Bft)
14.05.2011 23:40 10,2 C 62 % 1016,4 hPa 0,0 mm 0,0 km/h (0 Bft) W-NW 292 0 min 0 UV-I 0 W/m 6,4 km/h (2 Bft)
14.05.2011 23:50 10,0 C 62 % 1016,3 hPa 0,0 mm 0,0 km/h (0 Bft) W 270 0 min 0 UV-I 0 W/m 1,6 km/h (1 Bft)
_ Min-Zeit 05:40 19:20 09:40 - 00:00 - - - - - 00:10
Minimum _ 8,4 C 41 % 1012,6 hPa - 0,0 km/h (0 Bft) - - - - - 0,0 km/h (0 Bft)
_ Max-Zeit 12:00 05:50 00:00 00:00 12:50 - - 07:20 12:50 12:40 12:50
Maximum _ 18,8 C 86 % 1016,6 hPa 0,0 mm 9,7 km/h
W (2 Bft)
- - 10 min 6 UV-I 865 W/m 27,4 km/h
W (4 Bft)
Durchschnitt _ 13,6 C 62 % 1014,1 hPa #0,0 mm 3,3 km/h (1 Bft) W - #8:20 h 3 UV-I 369 W/m 10,4 km/h (2 Bft)